Time;durP1;ratioP1;P1;durP2;ratioP2;P2;SDS_P1;SDS_P2;PMS_P1;PMS_P2;Temp;Humidity;BMP_temperature;BMP_pressure;BME280_temperature;BME280_humidity;BME280_pressure;Samples;Min_cycle;Max_cycle;Signal;HPM_P1;HPM_P2
2023/04/26 00:01:28;;;;;;;14.77;8.45;;;;;;;9.26;78.79;93020.41;5066403;28;20241;-77
2023/04/26 00:03:55;;;;;;;12.63;7.97;;;;;;;9.16;78.68;93002.16;5066441;28;20032;-77
2023/04/26 00:06:20;;;;;;;15.23;8.35;;;;;;;9.11;78.72;93000.50;5065281;28;20179;-77
2023/04/26 00:08:46;;;;;;;18.00;8.65;;;;;;;9.09;78.66;92996.59;5065903;28;20024;-77
2023/04/26 00:11:11;;;;;;;10.02;6.85;;;;;;;9.06;78.30;92995.38;5066100;28;20028;-77
2023/04/26 00:13:37;;;;;;;10.77;6.40;;;;;;;8.98;78.31;92989.03;5065845;28;20056;-77
2023/04/26 00:16:03;;;;;;;10.23;6.95;;;;;;;8.90;78.21;92984.53;5065878;28;20338;-77
2023/04/26 00:18:30;;;;;;;12.93;7.85;;;;;;;8.81;78.48;92981.16;5065934;28;20204;-78
2023/04/26 00:20:56;;;;;;;12.63;6.68;;;;;;;8.78;78.39;92971.97;5065927;28;20035;-78
2023/04/26 00:23:21;;;;;;;11.73;6.45;;;;;;;8.75;78.71;92983.25;5065996;28;20227;-78
2023/04/26 00:25:47;;;;;;;11.15;7.03;;;;;;;8.69;79.06;92979.22;5065536;28;20135;-78
2023/04/26 00:28:12;;;;;;;12.80;7.03;;;;;;;8.67;78.92;92978.75;5065597;28;20029;-78
2023/04/26 00:30:41;;;;;;;11.05;6.80;;;;;;;8.64;79.03;92977.50;5065832;28;20365;-78
2023/04/26 00:33:06;;;;;;;10.98;6.95;;;;;;;8.60;79.16;92967.84;5065548;28;20020;-78
2023/04/26 00:35:32;;;;;;;11.18;5.70;;;;;;;8.55;79.21;92974.13;5065534;28;20146;-78
2023/04/26 00:37:57;;;;;;;7.25;5.20;;;;;;;8.52;78.95;92964.16;5064299;28;20027;-78
2023/04/26 00:40:23;;;;;;;10.75;6.40;;;;;;;8.50;78.95;92962.91;5064408;28;20200;-78
2023/04/26 00:42:48;;;;;;;13.23;7.15;;;;;;;8.43;79.12;92966.09;5065278;28;20029;-78
2023/04/26 00:45:14;;;;;;;17.48;7.78;;;;;;;8.42;78.84;92964.50;5065351;28;20343;-78
2023/04/26 00:47:39;;;;;;;14.75;7.55;;;;;;;8.34;78.92;92965.31;5065464;28;20033;-78
2023/04/26 00:50:06;;;;;;;12.73;7.28;;;;;;;8.33;79.03;92969.06;5063083;28;20066;-78
2023/04/26 00:52:32;;;;;;;9.43;5.88;;;;;;;8.27;79.09;92967.69;5065260;28;20220;-78
2023/04/26 00:54:58;;;;;;;11.48;6.60;;;;;;;8.23;78.93;92963.03;5065439;28;20021;-78
2023/04/26 00:57:24;;;;;;;11.73;6.53;;;;;;;8.22;78.94;92964.13;5065525;28;20049;-78
2023/04/26 00:59:50;;;;;;;12.52;6.70;;;;;;;8.15;79.06;92958.53;5065370;28;20056;-78
2023/04/26 01:02:16;;;;;;;9.65;5.90;;;;;;;8.12;79.07;92964.50;5065090;28;20039;-78
2023/04/26 01:04:41;;;;;;;12.63;5.55;;;;;;;8.10;79.03;92976.50;5065253;28;20342;-78
2023/04/26 01:07:07;;;;;;;18.15;6.35;;;;;;;8.06;79.11;92971.06;5064928;28;20084;-78
2023/04/26 01:09:33;;;;;;;13.30;6.65;;;;;;;8.05;79.01;92980.13;5064897;28;20135;-78
2023/04/26 01:12:01;;;;;;;13.15;5.85;;;;;;;8.01;78.95;92972.00;5064759;28;20044;-78
2023/04/26 01:14:27;;;;;;;11.88;5.75;;;;;;;7.96;78.66;92982.03;5064699;28;20090;-78
2023/04/26 01:16:53;;;;;;;7.63;4.65;;;;;;;7.92;78.32;92968.63;5065031;28;20298;-77
2023/04/26 01:19:18;;;;;;;9.35;5.82;;;;;;;7.87;78.38;92968.00;5064863;28;20337;-78
2023/04/26 01:21:44;;;;;;;13.48;5.60;;;;;;;7.85;78.45;92957.69;5064987;28;20037;-78
2023/04/26 01:24:11;;;;;;;8.05;4.78;;;;;;;7.86;78.44;92961.94;5064804;28;20032;-78
2023/04/26 01:26:44;;;;;;;9.30;5.95;;;;;;;7.83;78.52;92954.59;5064437;28;20040;-78
2023/04/26 01:29:20;;;;;;;9.80;5.88;;;;;;;7.82;78.93;92953.81;5064829;28;20094;-78
2023/04/26 01:31:47;;;;;;;10.68;7.05;;;;;;;7.77;79.03;92956.63;5064610;28;20021;-78
2023/04/26 01:34:13;;;;;;;10.32;6.22;;;;;;;7.73;79.33;92963.66;5064370;28;20024;-78
2023/04/26 01:36:38;;;;;;;8.27;5.35;;;;;;;7.62;80.25;92968.53;5064401;28;20020;-77
2023/04/26 01:39:04;;;;;;;8.88;5.35;;;;;;;7.51;80.64;92963.88;5064437;28;20089;-78
2023/04/26 01:41:30;;;;;;;11.25;6.32;;;;;;;7.47;81.10;92977.00;5064277;28;20211;-77
2023/04/26 01:43:55;;;;;;;11.07;5.95;;;;;;;7.44;81.41;92973.09;5064241;28;20302;-77
2023/04/26 01:46:21;;;;;;;7.40;5.60;;;;;;;7.44;81.63;92972.31;5063198;28;20032;-78
2023/04/26 01:48:47;;;;;;;10.18;6.38;;;;;;;7.47;82.05;92976.19;5064208;28;20047;-78
2023/04/26 01:51:12;;;;;;;10.65;5.68;;;;;;;7.50;81.61;92971.06;5064273;28;20067;-77
2023/04/26 01:53:38;;;;;;;9.80;6.20;;;;;;;7.54;81.53;92974.63;5064321;28;20052;-78
2023/04/26 01:56:04;;;;;;;14.45;6.80;;;;;;;7.59;81.33;92968.38;5064277;28;20029;-78
2023/04/26 01:58:30;;;;;;;11.57;6.45;;;;;;;7.64;80.96;92968.22;5064369;28;20315;-78
2023/04/26 02:00:56;;;;;;;10.45;5.93;;;;;;;7.68;80.78;92961.19;5063788;28;20082;-78
2023/04/26 02:03:22;;;;;;;10.80;6.32;;;;;;;7.69;81.00;92962.75;5063920;28;20091;-77
2023/04/26 02:05:47;;;;;;;9.82;6.22;;;;;;;7.66;81.14;92955.44;5063916;28;20150;-78
2023/04/26 02:08:13;;;;;;;10.13;6.47;;;;;;;7.64;81.37;92955.75;5063687;28;20323;-78
2023/04/26 02:10:38;;;;;;;10.85;6.53;;;;;;;7.69;81.23;92952.13;5063868;28;20028;-78
2023/04/26 02:13:07;;;;;;;9.48;5.55;;;;;;;7.72;81.26;92954.16;5063712;28;20044;-78
2023/04/26 02:15:32;;;;;;;10.73;7.18;;;;;;;7.72;81.34;92951.50;5063745;28;20055;-79
2023/04/26 02:17:58;;;;;;;10.68;7.18;;;;;;;7.74;81.28;92941.38;5063907;28;20021;-77
2023/04/26 02:20:24;;;;;;;11.60;7.07;;;;;;;7.76;81.30;92941.06;5063942;28;20044;-77
2023/04/26 02:22:50;;;;;;;12.80;7.45;;;;;;;7.79;81.53;92937.75;5064016;28;20117;-77
2023/04/26 02:25:15;;;;;;;11.43;6.75;;;;;;;7.81;81.60;92943.50;5063672;28;20021;-77
2023/04/26 02:27:41;;;;;;;13.15;7.30;;;;;;;7.83;81.64;92949.28;5063496;28;20033;-77
2023/04/26 02:30:07;;;;;;;11.88;6.53;;;;;;;7.84;81.46;92948.19;5063568;28;20021;-77
2023/04/26 02:32:32;;;;;;;11.52;7.10;;;;;;;7.86;81.53;92950.50;5063785;28;20200;-77
2023/04/26 02:34:58;;;;;;;13.57;8.15;;;;;;;7.86;81.81;92951.31;5062451;28;20056;-78
2023/04/26 02:37:23;;;;;;;14.27;9.13;;;;;;;7.88;82.22;92946.47;5063543;28;20016;-78
2023/04/26 02:39:50;;;;;;;12.95;8.02;;;;;;;7.93;82.58;92948.16;5063328;28;20029;-78
2023/04/26 02:42:15;;;;;;;13.38;8.43;;;;;;;7.97;82.76;92946.44;5063552;28;20048;-78
2023/04/26 02:44:41;;;;;;;12.20;8.02;;;;;;;7.99;82.69;92949.53;5063316;28;20032;-78
2023/04/26 02:47:07;;;;;;;14.20;8.32;;;;;;;8.04;82.84;92947.50;5063454;28;20220;-78
2023/04/26 02:49:32;;;;;;;12.70;7.63;;;;;;;8.09;82.90;92938.56;5063114;28;20093;-78
2023/04/26 02:51:58;;;;;;;15.75;8.60;;;;;;;8.12;82.33;92935.28;5063014;28;20078;-77
2023/04/26 02:54:23;;;;;;;16.50;8.38;;;;;;;8.15;82.70;92934.63;5063190;28;20024;-77
2023/04/26 02:56:49;;;;;;;13.65;8.77;;;;;;;8.18;82.49;92923.41;5063228;28;20044;-77
2023/04/26 02:59:14;;;;;;;11.85;8.43;;;;;;;8.21;82.18;92924.63;5063069;28;20036;-77
2023/04/26 03:01:40;;;;;;;12.32;7.82;;;;;;;8.26;82.41;92934.28;5062990;28;20219;-77
2023/04/26 03:04:06;;;;;;;15.98;8.93;;;;;;;8.30;82.10;92938.63;5062817;28;20031;-77
2023/04/26 03:06:32;;;;;;;15.00;7.97;;;;;;;8.32;82.40;92938.31;5062878;28;20318;-78
2023/04/26 03:08:57;;;;;;;10.85;7.18;;;;;;;8.33;82.40;92932.69;5062863;28;20023;-78
2023/04/26 03:11:23;;;;;;;16.33;7.28;;;;;;;8.38;82.04;92939.66;5063075;28;20017;-76
2023/04/26 03:13:48;;;;;;;15.20;8.30;;;;;;;8.39;82.09;92928.75;5061931;28;20041;-77
2023/04/26 03:16:15;;;;;;;14.70;7.88;;;;;;;8.44;81.81;92927.78;5063006;28;20104;-78
2023/04/26 03:18:40;;;;;;;15.57;8.63;;;;;;;8.47;81.71;92923.72;5063008;28;20017;-78
2023/04/26 03:21:06;;;;;;;13.35;8.27;;;;;;;8.52;81.54;92929.63;5062677;28;20364;-79
2023/04/26 03:23:31;;;;;;;12.23;7.85;;;;;;;8.54;81.57;92935.38;5063041;28;20092;-78
2023/04/26 03:25:57;;;;;;;19.10;8.70;;;;;;;8.54;81.89;92926.66;5062726;28;20028;-78
2023/04/26 03:28:23;;;;;;;15.00;8.02;;;;;;;8.59;82.07;92929.13;5061899;28;20021;-78
2023/04/26 03:30:49;;;;;;;13.82;8.20;;;;;;;8.62;82.30;92928.47;5062706;28;20021;-76
2023/04/26 03:33:15;;;;;;;12.90;8.32;;;;;;;8.64;82.08;92937.66;5062643;28;20040;-78
2023/04/26 03:35:41;;;;;;;11.20;7.45;;;;;;;8.66;82.15;92934.69;5062643;28;20037;-80
2023/04/26 03:38:07;;;;;;;13.82;7.65;;;;;;;8.69;82.44;92942.03;5063158;28;20025;-80
2023/04/26 03:40:32;;;;;;;12.50;8.35;;;;;;;8.68;82.33;92940.47;5063450;28;20025;-80
2023/04/26 03:42:58;;;;;;;14.68;8.30;;;;;;;8.69;82.71;92943.88;5063174;28;20203;-80
2023/04/26 03:45:25;;;;;;;12.38;8.32;;;;;;;8.70;82.62;92946.22;5063332;28;20311;-79
2023/04/26 03:47:51;;;;;;;14.07;9.38;;;;;;;8.73;82.50;92950.09;5062809;28;20035;-79
2023/04/26 03:50:16;;;;;;;16.23;10.75;;;;;;;8.80;82.13;92945.06;5062852;28;20032;-79
2023/04/26 03:52:42;;;;;;;16.33;8.98;;;;;;;8.83;82.02;92949.72;5062961;28;20029;-78
2023/04/26 03:55:09;;;;;;;16.10;10.10;;;;;;;8.88;81.92;92949.53;5062456;28;20032;-78
2023/04/26 03:57:34;;;;;;;19.60;10.52;;;;;;;8.94;81.73;92928.88;5062427;28;20021;-78
2023/04/26 04:00:00;;;;;;;19.58;11.38;;;;;;;8.95;81.48;92935.72;5062500;28;20036;-78
2023/04/26 04:02:25;;;;;;;18.45;10.55;;;;;;;8.99;80.67;92949.94;5062421;28;20025;-77
2023/04/26 04:04:51;;;;;;;14.93;9.32;;;;;;;8.94;80.19;92953.56;5062261;28;20028;-77
2023/04/26 04:07:17;;;;;;;14.95;8.85;;;;;;;8.90;80.57;92957.19;5062292;28;20033;-77
2023/04/26 04:09:43;;;;;;;13.55;7.95;;;;;;;8.84;80.92;92961.94;5062555;28;20087;-78
2023/04/26 04:12:08;;;;;;;14.63;8.38;;;;;;;8.75;81.15;92966.50;5062152;28;20124;-77
2023/04/26 04:14:34;;;;;;;21.42;9.77;;;;;;;8.71;81.53;92962.94;5062209;28;20063;-77
2023/04/26 04:16:59;;;;;;;17.25;9.32;;;;;;;8.73;82.07;92961.53;5062262;28;20088;-77
2023/04/26 04:19:26;;;;;;;16.67;8.68;;;;;;;8.71;82.02;92960.28;5060846;28;20028;-77
2023/04/26 04:21:51;;;;;;;17.25;9.45;;;;;;;8.74;82.05;92967.63;5061979;28;20025;-77
2023/04/26 04:24:18;;;;;;;15.10;9.80;;;;;;;8.77;82.50;92969.63;5062298;28;20070;-77
2023/04/26 04:26:44;;;;;;;16.38;9.55;;;;;;;8.81;81.92;92973.19;5065915;28;20243;-77
2023/04/26 04:29:10;;;;;;;18.50;10.25;;;;;;;8.85;82.49;92976.75;5065910;28;20116;-78
2023/04/26 04:31:35;;;;;;;22.38;11.32;;;;;;;8.94;82.71;92972.16;5065713;28;20087;-78
2023/04/26 04:34:01;;;;;;;21.13;11.60;;;;;;;9.03;81.97;92972.88;5065735;28;20024;-77
2023/04/26 04:36:26;;;;;;;24.02;12.32;;;;;;;9.07;81.99;92980.22;5065782;28;20025;-77
2023/04/26 04:38:52;;;;;;;26.63;12.90;;;;;;;9.07;82.31;92980.22;5065666;28;20070;-77
2023/04/26 04:41:19;;;;;;;31.27;14.60;;;;;;;9.07;82.74;92983.63;5065462;28;20047;-77
2023/04/26 04:43:45;;;;;;;26.38;15.20;;;;;;;9.09;82.01;92984.09;5065506;28;20029;-78
2023/04/26 04:46:10;;;;;;;31.58;15.88;;;;;;;9.03;82.32;92974.75;5065222;28;20196;-78
2023/04/26 04:48:37;;;;;;;26.52;15.45;;;;;;;9.00;82.83;92980.72;5065070;28;20084;-77
2023/04/26 04:51:03;;;;;;;32.92;16.83;;;;;;;8.97;83.04;92976.81;5065336;28;20044;-77
2023/04/26 04:53:28;;;;;;;31.15;15.82;;;;;;;9.05;83.10;92980.53;5065503;28;20231;-77
2023/04/26 04:55:54;;;;;;;32.92;15.98;;;;;;;9.07;82.34;92996.94;5065592;28;20029;-77
2023/04/26 04:58:21;;;;;;;29.88;16.00;;;;;;;9.09;82.52;92991.28;5064985;28;20021;-78
2023/04/26 05:00:46;;;;;;;30.83;16.05;;;;;;;9.12;82.30;92975.47;5065285;28;20025;-77
2023/04/26 05:03:13;;;;;;;31.30;18.27;;;;;;;9.13;82.55;92978.91;5065053;28;20161;-76
2023/04/26 05:05:38;;;;;;;25.52;15.60;;;;;;;9.18;81.99;92981.34;5065110;28;20025;-77
2023/04/26 05:08:06;;;;;;;27.52;16.10;;;;;;;9.20;81.54;92984.50;5064777;28;20056;-77
2023/04/26 05:10:33;;;;;;;27.80;15.07;;;;;;;9.22;82.05;92982.28;5065002;28;20262;-72
2023/04/26 05:12:58;;;;;;;32.22;16.15;;;;;;;9.27;83.08;92984.75;5064781;28;20060;-72
2023/04/26 05:15:24;;;;;;;26.88;16.10;;;;;;;9.30;83.27;92983.28;5064818;28;20074;-71
2023/04/26 05:17:50;;;;;;;28.17;15.23;;;;;;;9.35;83.49;92991.09;5064767;28;20047;-72
2023/04/26 05:20:15;;;;;;;28.70;16.40;;;;;;;9.43;83.49;92983.03;5064569;28;20311;-72
2023/04/26 05:22:41;;;;;;;27.40;14.75;;;;;;;9.55;82.95;92984.97;5064678;28;20028;-72
2023/04/26 05:25:07;;;;;;;28.17;15.73;;;;;;;9.71;82.92;92993.13;5064743;28;20028;-72
2023/04/26 05:27:33;;;;;;;29.80;15.18;;;;;;;9.79;81.72;92994.91;5064523;28;20441;-72
2023/04/26 05:30:00;;;;;;;22.30;13.38;;;;;;;9.96;80.33;93001.94;5064751;28;20033;-71
2023/04/26 05:32:25;;;;;;;23.92;12.80;;;;;;;10.09;78.73;92997.41;5064486;28;20037;-72
2023/04/26 05:34:51;;;;;;;17.27;11.45;;;;;;;10.16;77.21;92994.22;5064617;28;20267;-72
2023/04/26 05:37:16;;;;;;;24.45;11.35;;;;;;;10.21;75.33;93007.28;5063506;28;20025;-72
2023/04/26 05:39:42;;;;;;;16.63;9.85;;;;;;;10.20;74.98;93003.88;5064322;28;20082;-72
2023/04/26 05:42:08;;;;;;;15.52;9.68;;;;;;;10.28;74.53;92994.22;5064391;28;20021;-72
2023/04/26 05:44:33;;;;;;;15.25;9.30;;;;;;;10.47;74.63;93007.03;5064347;28;20192;-71
2023/04/26 05:46:59;;;;;;;18.15;9.88;;;;;;;10.54;74.09;93009.94;5064522;28;20076;-78
2023/04/26 05:49:25;;;;;;;27.48;11.38;;;;;;;10.64;73.70;93003.34;5064635;28;20071;-78
2023/04/26 05:51:50;;;;;;;15.25;10.32;;;;;;;10.76;72.47;93000.69;5064284;28;20036;-79
2023/04/26 05:54:16;;;;;;;15.93;9.10;;;;;;;10.81;72.34;93005.03;5063744;28;20052;-79
2023/04/26 05:56:41;;;;;;;18.15;9.48;;;;;;;10.91;71.91;93001.91;5064181;28;20036;-81
2023/04/26 05:59:07;;;;;;;16.35;10.05;;;;;;;10.97;71.38;93003.22;5064571;28;20100;-80
2023/04/26 06:01:33;;;;;;;16.65;8.95;;;;;;;11.10;70.09;93000.53;5064435;28;20047;-81
2023/04/26 06:03:58;;;;;;;15.82;9.18;;;;;;;11.17;69.68;93006.06;5064631;28;20063;-80
2023/04/26 06:06:24;;;;;;;16.60;8.95;;;;;;;11.18;69.71;93007.63;5064553;28;20078;-79
2023/04/26 06:08:49;;;;;;;25.40;9.23;;;;;;;11.27;70.21;93000.25;5064144;28;20025;-78
2023/04/26 06:11:15;;;;;;;16.77;8.05;;;;;;;11.23;70.37;93004.72;5063853;28;20017;-78
2023/04/26 06:13:40;;;;;;;14.10;7.63;;;;;;;11.35;69.75;93007.34;5063919;28;20041;-79
2023/04/26 06:16:06;;;;;;;10.60;6.35;;;;;;;11.48;67.66;93007.31;5063471;28;20192;-79
2023/04/26 06:18:32;;;;;;;13.75;7.05;;;;;;;11.49;67.25;93000.88;5063919;28;20104;-79
2023/04/26 06:20:57;;;;;;;8.40;4.78;;;;;;;11.37;64.38;93015.03;5064015;28;20203;-78
2023/04/26 06:23:23;;;;;;;7.13;4.32;;;;;;;11.30;64.31;93007.59;5063806;28;20239;-78
2023/04/26 06:25:48;;;;;;;5.85;3.45;;;;;;;11.04;64.12;93014.09;5062022;28;20381;-79
2023/04/26 06:28:13;;;;;;;7.65;4.57;;;;;;;11.00;65.70;93021.22;5062384;28;20198;-79
2023/04/26 06:30:40;;;;;;;10.70;4.15;;;;;;;10.73;64.75;93020.03;5061960;28;20084;-79
2023/04/26 06:33:05;;;;;;;7.43;3.55;;;;;;;10.55;64.12;93010.69;5062075;28;20215;-77
2023/04/26 06:35:31;;;;;;;11.30;4.18;;;;;;;10.45;64.01;93019.91;5062062;28;20024;-78
2023/04/26 06:37:56;;;;;;;6.45;4.10;;;;;;;10.31;64.52;93024.78;5061938;28;20009;-78
2023/04/26 06:40:22;;;;;;;6.30;3.97;;;;;;;10.26;68.07;93020.41;5063645;28;20083;-79
2023/04/26 06:42:48;;;;;;;7.20;4.70;;;;;;;10.23;66.01;93024.50;5062391;28;20055;-79
2023/04/26 06:45:16;;;;;;;7.72;4.60;;;;;;;10.23;65.86;93021.06;5063557;28;20338;-79
2023/04/26 06:47:41;;;;;;;6.70;4.10;;;;;;;10.28;67.55;93026.19;5063585;28;20020;-79
2023/04/26 06:50:07;;;;;;;7.45;3.95;;;;;;;10.16;64.88;93031.50;5063577;28;20274;-78
2023/04/26 06:52:33;;;;;;;7.97;4.38;;;;;;;10.05;65.10;93028.44;5063419;28;20307;-79
2023/04/26 06:55:02;;;;;;;7.60;4.07;;;;;;;9.81;63.22;93034.47;5063127;28;20024;-78
2023/04/26 06:57:28;;;;;;;7.13;3.85;;;;;;;9.71;63.51;93035.69;5063454;28;20200;-79
2023/04/26 06:59:53;;;;;;;6.40;4.10;;;;;;;9.53;64.20;93037.72;5063589;28;20028;-79
2023/04/26 07:02:19;;;;;;;6.93;4.43;;;;;;;9.57;65.00;93045.84;5063269;28;20021;-79
2023/04/26 07:04:44;;;;;;;7.85;3.75;;;;;;;9.51;64.55;93036.50;5063416;28;20021;-79
2023/04/26 07:07:10;;;;;;;7.18;4.95;;;;;;;9.55;65.93;93037.41;5062934;28;20088;-79
2023/04/26 07:09:36;;;;;;;9.45;4.68;;;;;;;9.70;67.13;93028.78;5063149;28;20085;-78
2023/04/26 07:12:01;;;;;;;6.93;4.00;;;;;;;9.71;64.98;93037.56;5063037;28;20052;-79
2023/04/26 07:14:27;;;;;;;9.13;4.55;;;;;;;9.75;62.01;93027.81;5062826;28;20223;-78
2023/04/26 07:16:53;;;;;;;8.45;4.07;;;;;;;9.93;62.90;93023.09;5063295;28;20021;-78
2023/04/26 07:19:18;;;;;;;6.28;4.30;;;;;;;10.02;61.73;93034.44;5062892;28;20048;-78
2023/04/26 07:21:44;;;;;;;10.38;4.47;;;;;;;10.13;62.15;93024.91;5062949;28;20245;-79
2023/04/26 07:24:09;;;;;;;6.20;3.38;;;;;;;10.30;60.15;93023.19;5062618;28;20024;-78
2023/04/26 07:26:35;;;;;;;5.00;3.00;;;;;;;10.32;59.13;93020.97;5062900;28;20021;-79
2023/04/26 07:29:01;;;;;;;3.88;2.40;;;;;;;10.38;57.42;93015.13;5062919;28;20020;-79
2023/04/26 07:31:26;;;;;;;3.78;2.47;;;;;;;10.43;56.89;93022.13;5062835;28;20032;-79
2023/04/26 07:33:52;;;;;;;8.95;2.20;;;;;;;10.39;54.05;93021.22;5061801;28;20078;-79
2023/04/26 07:36:18;;;;;;;10.75;2.88;;;;;;;10.38;54.36;93024.97;5062981;28;20204;-79
2023/04/26 07:38:43;;;;;;;7.95;2.40;;;;;;;10.44;56.36;93035.13;5062993;28;20009;-78
2023/04/26 07:41:09;;;;;;;3.60;2.03;;;;;;;10.40;57.03;93044.06;5062837;28;20062;-79
2023/04/26 07:43:34;;;;;;;5.57;2.80;;;;;;;10.28;56.18;93049.34;5062960;28;20021;-79
2023/04/26 07:46:01;;;;;;;7.20;2.55;;;;;;;10.20;56.91;93043.03;5062873;28;20088;-79
2023/04/26 07:48:27;;;;;;;7.03;2.38;;;;;;;10.16;56.79;93042.91;5062866;28;20051;-79
2023/04/26 07:50:54;;;;;;;4.43;2.65;;;;;;;9.95;57.36;93074.94;5062991;28;20200;-79
2023/04/26 07:53:20;;;;;;;6.53;2.45;;;;;;;9.91;57.83;93052.72;5062887;28;20021;-79
2023/04/26 07:55:45;;;;;;;5.35;2.90;;;;;;;9.90;58.42;93058.38;5062695;28;20017;-78
2023/04/26 07:58:13;;;;;;;3.70;2.35;;;;;;;9.91;58.19;93052.72;5062592;28;20020;-79
2023/04/26 08:00:39;;;;;;;7.13;3.38;;;;;;;10.03;61.84;93051.97;5065459;28;20040;-79
2023/04/26 08:03:05;;;;;;;6.05;2.55;;;;;;;10.12;58.38;93050.00;5066633;28;20028;-78
2023/04/26 08:05:31;;;;;;;4.30;2.42;;;;;;;10.07;58.55;93063.50;5066446;28;20025;-78
2023/04/26 08:07:56;;;;;;;3.75;2.38;;;;;;;10.10;58.19;93043.47;5066863;28;20028;-77
2023/04/26 08:10:22;;;;;;;6.22;3.85;;;;;;;10.28;57.92;93052.81;5066533;28;20059;-79
2023/04/26 08:12:47;;;;;;;5.85;2.90;;;;;;;10.36;58.40;93048.50;5066107;28;20059;-79
2023/04/26 08:15:13;;;;;;;8.10;2.60;;;;;;;10.37;57.75;93058.06;5066468;28;20027;-78
2023/04/26 08:17:38;;;;;;;6.55;3.35;;;;;;;10.40;57.47;93063.53;5065334;28;20020;-79
2023/04/26 08:20:04;;;;;;;5.07;2.60;;;;;;;10.17;57.46;93057.78;5066736;28;20041;-78
2023/04/26 08:22:30;;;;;;;5.93;3.00;;;;;;;9.99;57.81;93073.16;5066473;28;20250;-79
2023/04/26 08:24:56;;;;;;;8.70;2.75;;;;;;;10.10;58.56;93054.88;5066315;28;20017;-78
2023/04/26 08:27:22;;;;;;;5.55;2.83;;;;;;;10.23;58.50;93064.44;5066355;28;20021;-78
2023/04/26 08:29:47;;;;;;;7.68;2.70;;;;;;;10.09;57.53;93071.19;5066096;28;20091;-79
2023/04/26 08:32:13;;;;;;;5.45;2.88;;;;;;;10.20;58.46;93046.47;5065170;28;20083;-79
2023/04/26 08:34:38;;;;;;;3.92;2.33;;;;;;;10.15;55.73;93065.31;5066069;28;20020;-79
2023/04/26 08:37:06;;;;;;;11.30;2.58;;;;;;;10.17;55.63;93063.09;5065951;28;20306;-79
2023/04/26 08:39:35;;;;;;;4.72;2.83;;;;;;;10.18;56.13;93059.34;5065990;28;20272;-79
2023/04/26 08:42:12;;;;;;;3.97;2.33;;;;;;;10.33;56.42;93057.94;5065934;28;20039;-78
2023/04/26 08:44:41;;;;;;;3.97;2.33;;;;;;;10.42;56.75;93047.19;5065885;28;20211;-78
2023/04/26 08:47:14;;;;;;;5.93;2.20;;;;;;;10.44;57.07;93060.94;5065579;28;20052;-79
2023/04/26 08:49:42;;;;;;;3.83;2.45;;;;;;;10.57;56.28;93064.44;5066084;28;20021;-79
2023/04/26 08:52:10;;;;;;;6.05;2.42;;;;;;;10.54;56.79;93070.41;5065311;28;20361;-79
2023/04/26 08:54:37;;;;;;;4.55;2.30;;;;;;;10.56;55.58;93063.66;5065384;28;20054;-78
2023/04/26 08:57:03;;;;;;;7.07;2.30;;;;;;;10.59;54.96;93056.88;5065507;28;20323;-78
2023/04/26 08:59:30;;;;;;;4.40;2.20;;;;;;;10.64;56.36;93065.44;5065346;28;20024;-79
2023/04/26 09:01:57;;;;;;;7.32;2.05;;;;;;;10.85;57.24;93067.22;5065260;28;20021;-78
2023/04/26 09:04:23;;;;;;;4.43;2.35;;;;;;;10.80;55.43;93062.09;5065402;28;20223;-78
2023/04/26 09:06:52;;;;;;;3.80;2.03;;;;;;;10.95;53.92;93068.66;5064978;28;20025;-78
2023/04/26 09:09:18;;;;;;;2.85;1.75;;;;;;;10.96;54.33;93065.66;5065381;28;20021;-79
2023/04/26 09:12:00;;;;;;;5.43;2.33;;;;;;;11.10;53.29;93075.97;5063977;28;20051;-78
2023/04/26 09:14:26;;;;;;;6.07;1.95;;;;;;;11.09;54.73;93074.41;5064163;28;20100;-79
2023/04/26 09:16:52;;;;;;;4.40;2.20;;;;;;;11.21;54.20;93070.97;5065486;28;20315;-79
2023/04/26 09:19:33;;;;;;;3.88;2.17;;;;;;;11.22;55.45;93073.31;5063776;28;20020;-78
2023/04/26 09:21:58;;;;;;;3.92;2.38;;;;;;;11.33;53.86;93068.28;5065452;28;20048;-78
2023/04/26 09:24:24;;;;;;;6.30;2.03;;;;;;;11.39;53.77;93071.50;5065459;28;20255;-79
2023/04/26 09:27:05;;;;;;;10.93;2.55;;;;;;;11.60;54.87;93071.31;5064026;28;20016;-78
2023/04/26 09:29:31;;;;;;;10.80;2.13;;;;;;;11.79;53.64;93066.16;5065331;28;20064;-79
2023/04/26 09:31:57;;;;;;;4.80;2.33;;;;;;;11.80;51.83;93067.69;5065464;28;20088;-78
2023/04/26 09:34:23;;;;;;;4.82;2.00;;;;;;;11.76;51.74;93058.81;5065595;28;20047;-78
2023/04/26 09:36:56;;;;;;;6.45;2.17;;;;;;;11.71;52.23;93077.75;5064104;28;20053;-79
2023/04/26 09:39:39;;;;;;;3.30;2.03;;;;;;;11.62;52.16;93074.44;5065281;28;20021;-79
2023/04/26 09:42:08;;;;;;;3.45;1.52;;;;;;;11.65;51.07;93065.75;5064903;28;20096;-78
2023/04/26 09:44:34;;;;;;;3.30;2.00;;;;;;;11.72;51.95;93065.94;5065110;28;20032;-79
2023/04/26 09:47:05;;;;;;;3.60;1.75;;;;;;;11.85;51.44;93050.69;5065260;28;20058;-79
2023/04/26 09:49:51;;;;;;;3.28;1.77;;;;;;;12.02;50.79;93055.72;5063782;28;20039;-78
2023/04/26 09:52:18;;;;;;;5.90;1.92;;;;;;;12.18;51.52;93063.00;5064509;28;20033;-79
2023/04/26 09:54:45;;;;;;;3.88;2.00;;;;;;;12.34;50.59;93055.81;5064324;28;20044;-79
2023/04/26 09:57:12;;;;;;;6.13;2.30;;;;;;;12.44;49.03;93060.63;5063592;28;20021;-79
2023/04/26 09:59:46;;;;;;;4.93;1.80;;;;;;;12.31;49.03;93058.38;5064571;28;20235;-79
2023/04/26 10:02:22;;;;;;;3.75;2.13;;;;;;;12.22;48.46;93053.97;5064485;28;20315;-79
2023/04/26 10:04:53;;;;;;;3.33;1.73;;;;;;;12.31;50.29;93056.47;5064420;28;20167;-78
2023/04/26 10:07:21;;;;;;;3.70;1.95;;;;;;;12.26;49.68;93047.97;5064515;28;20063;-79
2023/04/26 10:09:47;;;;;;;5.68;1.73;;;;;;;12.41;48.04;93053.28;5064312;28;20016;-79
2023/04/26 10:12:16;;;;;;;5.10;1.88;;;;;;;12.46;48.97;93052.28;5064310;28;20040;-79
2023/04/26 10:14:45;;;;;;;3.53;1.70;;;;;;;12.52;48.27;93050.91;5064168;28;20024;-79
2023/04/26 10:17:12;;;;;;;3.45;1.83;;;;;;;12.57;48.78;93058.66;5064135;28;20088;-78
2023/04/26 10:19:40;;;;;;;2.25;1.45;;;;;;;12.52;47.54;93056.25;5064044;28;20040;-79
2023/04/26 10:22:28;;;;;;;5.88;1.60;;;;;;;12.57;47.63;93044.53;5064029;28;20044;-79
2023/04/26 10:24:57;;;;;;;3.47;1.40;;;;;;;12.67;47.44;93045.91;5064450;28;20020;-78
2023/04/26 10:27:45;;;;;;;4.50;1.20;;;;;;;12.56;46.63;93045.66;5062739;28;20021;-79
2023/04/26 10:30:19;;;;;;;4.35;1.20;;;;;;;12.67;47.10;93053.94;5063866;28;20029;-79
2023/04/26 10:32:50;;;;;;;3.35;1.50;;;;;;;12.61;45.47;93043.47;5063925;28;20083;-78
2023/04/26 10:35:17;;;;;;;2.43;1.20;;;;;;;12.54;46.30;93048.66;5063698;28;20025;-78
2023/04/26 10:38:01;;;;;;;2.47;1.25;;;;;;;12.45;47.44;93053.38;5063665;28;20075;-78
2023/04/26 10:40:36;;;;;;;2.28;1.27;;;;;;;12.47;46.57;93048.47;5063738;28;20053;-79
2023/04/26 10:43:19;;;;;;;2.00;1.20;;;;;;;12.40;46.64;93053.66;5063631;28;20095;-78
2023/04/26 10:45:45;;;;;;;2.53;1.10;;;;;;;12.42;46.22;93051.41;5063325;28;20321;-79
2023/04/26 10:48:31;;;;;;;3.00;1.52;;;;;;;12.23;45.94;93033.38;5063434;28;20025;-79
2023/04/26 10:51:00;;;;;;;2.58;1.10;;;;;;;12.12;46.15;93048.34;5063605;28;20017;-80
2023/04/26 10:53:29;;;;;;;4.88;1.40;;;;;;;12.09;47.13;93055.16;5063610;28;20025;-79
2023/04/26 10:55:55;;;;;;;5.38;1.10;;;;;;;12.08;46.22;93034.91;5063373;28;20225;-79
2023/04/26 10:58:33;;;;;;;1.95;1.02;;;;;;;12.22;48.41;93034.50;5063638;28;20013;-80
2023/04/26 11:01:10;;;;;;;1.95;0.93;;;;;;;12.35;46.29;93035.19;5062210;28;20315;-79
2023/04/26 11:03:36;;;;;;;5.47;1.50;;;;;;;12.45;45.06;93038.13;5063255;28;20092;-79
2023/04/26 11:06:14;;;;;;;1.95;1.00;;;;;;;12.45;44.65;93030.09;5063566;28;20024;-80
2023/04/26 11:08:40;;;;;;;2.78;1.20;;;;;;;12.38;43.82;93042.53;5063198;28;20040;-79
2023/04/26 11:11:12;;;;;;;2.63;1.08;;;;;;;12.48;45.23;93031.34;5063446;28;20096;-79
2023/04/26 11:13:41;;;;;;;1.60;0.80;;;;;;;12.55;45.33;93044.09;5062827;28;20051;-80
2023/04/26 11:16:12;;;;;;;5.80;1.27;;;;;;;12.61;44.15;93043.47;5063342;28;20021;-80
2023/04/26 11:18:43;;;;;;;1.85;1.20;;;;;;;12.62;42.31;93037.03;5061972;28;20028;-80
2023/04/26 11:21:10;;;;;;;3.50;1.38;;;;;;;12.62;43.04;93065.66;5063181;28;20074;-79
2023/04/26 11:23:35;;;;;;;3.08;1.10;;;;;;;12.57;43.16;93047.97;5063107;28;20008;-80
2023/04/26 11:26:07;;;;;;;2.60;1.25;;;;;;;12.51;43.46;93052.00;5063294;28;20319;-79
2023/04/26 11:28:34;;;;;;;5.80;1.37;;;;;;;12.57;44.23;93050.63;5062702;28;20092;-80
2023/04/26 11:31:00;;;;;;;6.07;1.33;;;;;;;12.72;44.97;93042.97;5063004;28;20028;-79